Search for airport 
image banner adimage banner adimage banner ad
image banner ad

KCSL - O'sullivan Ahp

Located in Camp San Luis Obispo, United States

ICAO - CSL, IATA -

Data provided by Airmate  

General information

Coordinates: N35°19'60" W120°44'4"
Elevation is 250 feet MSL.
Magnetic variation is 15° East
View others Airports in California

Operational data

Special qualification required
Current time UTC:
Current local time:
Weather at : KSBP - San Luis County Rgnl ( 14 km )
METAR: KSBP 210856Z AUTO 19004KT 10SM OVC006 14/12 A2993 RMK AO2 SLP132 T01440122 53003
TAF: KSBP 210809Z 2108/2206 VRB03KT P6SM OVC008 FM211000 00000KT 2SM BR VCFG OVC003 FM211500 VRB03KT 5SM BR OVC006 FM211700 VRB03KT P6SM SKC FM212000 25008KT P6SM SKC FM212300 30010KT P6SM SKC FM220500 31006KT P6SM BKN006
View NOTAMs / SUP AIP / TFR affecting this airport [VIEW]
Communications frequencies: [VIEW]

Runways:

Airport contact information

Address: Camp San Luis Obispo United States

Satellite view of KCSL